createdAt,value
2019-05-05T00:00:16.438Z,1008.24
2019-05-05T00:01:16.437Z,1008.20
2019-05-05T00:02:16.419Z,1008.25
2019-05-05T00:03:16.425Z,1008.26
2019-05-05T00:04:16.394Z,1008.26
2019-05-05T00:05:16.387Z,1008.25
2019-05-05T00:06:16.372Z,1008.26
2019-05-05T00:07:16.361Z,1008.26
2019-05-05T00:08:16.350Z,1008.28
2019-05-05T00:09:16.372Z,1008.27
2019-05-05T00:10:16.328Z,1008.29
2019-05-05T00:11:16.317Z,1008.32
2019-05-05T00:12:16.305Z,1008.33
2019-05-05T00:13:16.297Z,1008.33
2019-05-05T00:14:16.283Z,1008.36
2019-05-05T00:15:16.302Z,1008.36
2019-05-05T00:16:16.261Z,1008.36
2019-05-05T00:17:16.249Z,1008.39
2019-05-05T00:18:16.239Z,1008.39
2019-05-05T00:19:28.989Z,1008.40
2019-05-05T00:20:17.249Z,1008.45
2019-05-05T00:21:16.208Z,1008.44
2019-05-05T00:22:16.194Z,1008.43
2019-05-05T00:23:16.186Z,1008.44
2019-05-05T00:24:16.172Z,1008.43
2019-05-05T00:25:16.162Z,1008.44
2019-05-05T00:26:16.157Z,1008.45
2019-05-05T00:27:16.141Z,1008.48
2019-05-05T00:28:16.127Z,1008.43
2019-05-05T00:29:16.117Z,1008.46
2019-05-05T00:30:16.107Z,1008.48
2019-05-05T00:31:16.095Z,1008.49
2019-05-05T00:32:16.105Z,1008.51
2019-05-05T00:33:16.074Z,1008.48
2019-05-05T00:34:16.063Z,1008.50
2019-05-05T00:35:16.050Z,1008.48
2019-05-05T00:36:16.040Z,1008.48
2019-05-05T00:37:16.029Z,1008.53
2019-05-05T00:38:16.031Z,1008.51
2019-05-05T00:39:16.006Z,1008.51
2019-05-05T00:40:15.997Z,1008.55
2019-05-05T00:41:15.984Z,1008.53
2019-05-05T00:42:15.973Z,1008.53
2019-05-05T00:43:15.962Z,1008.52
2019-05-05T00:44:15.984Z,1008.52
2019-05-05T00:45:15.940Z,1008.53
2019-05-05T00:46:16.560Z,1008.53
2019-05-05T00:47:15.918Z,1008.50
2019-05-05T00:48:15.908Z,1008.50
2019-05-05T00:49:15.900Z,1008.53
2019-05-05T00:50:15.891Z,1008.50
2019-05-05T00:51:15.880Z,1008.51
2019-05-05T00:52:15.864Z,1008.53
2019-05-05T00:53:15.851Z,1008.47
2019-05-05T00:54:15.840Z,1008.49
2019-05-05T00:55:15.829Z,1008.55
2019-05-05T00:56:15.849Z,1008.54
2019-05-05T00:57:15.809Z,1008.52
2019-05-05T00:58:15.797Z,1008.52
2019-05-05T00:59:15.784Z,1008.57
2019-05-05T01:00:15.775Z,1008.55
2019-05-05T01:01:15.763Z,1008.51
2019-05-05T01:02:15.786Z,1008.53
2019-05-05T01:03:15.741Z,1008.57
2019-05-05T01:04:15.730Z,1008.55
2019-05-05T01:05:15.721Z,1008.56
2019-05-05T01:06:15.707Z,1008.60
2019-05-05T01:07:15.699Z,1008.56
2019-05-05T01:08:15.708Z,1008.58
2019-05-05T01:09:15.685Z,1008.58
2019-05-05T01:10:15.667Z,1008.59
2019-05-05T01:11:15.653Z,1008.60
2019-05-05T01:12:15.642Z,1008.59
2019-05-05T01:13:15.631Z,1008.63
2019-05-05T01:14:15.625Z,1008.60
2019-05-05T01:15:15.609Z,1008.65
2019-05-05T01:16:15.597Z,1008.64
2019-05-05T01:17:15.585Z,1008.64
2019-05-05T01:18:15.576Z,1008.70
2019-05-05T01:19:15.564Z,1008.71
2019-05-05T01:20:15.561Z,1008.74
2019-05-05T01:21:15.541Z,1008.73
2019-05-05T01:22:15.531Z,1008.76
2019-05-05T01:23:15.520Z,1008.82
2019-05-05T01:24:15.509Z,1008.80
2019-05-05T01:25:15.499Z,1008.80
2019-05-05T01:26:15.521Z,1008.86
2019-05-05T01:27:15.476Z,1008.89
2019-05-05T01:28:15.466Z,1008.88
2019-05-05T01:29:15.453Z,1008.89
2019-05-05T01:30:15.442Z,1008.94
2019-05-05T01:31:15.432Z,1009.00
2019-05-05T01:32:15.450Z,1009.00
2019-05-05T01:33:15.411Z,1009.05
2019-05-05T01:34:15.398Z,1009.08
2019-05-05T01:35:15.389Z,1009.11
2019-05-05T01:36:15.376Z,1009.15
2019-05-05T01:37:15.365Z,1009.14
2019-05-05T01:38:15.361Z,1009.19
2019-05-05T01:39:15.342Z,1009.20
2019-05-05T01:40:15.332Z,1009.25
2019-05-05T01:41:15.319Z,1009.24
2019-05-05T01:42:15.310Z,1009.24
2019-05-05T01:43:15.298Z,1009.28
2019-05-05T01:44:15.340Z,1009.30
2019-05-05T01:45:15.277Z,1009.32
2019-05-05T01:46:15.264Z,1009.29
2019-05-05T01:47:15.255Z,1009.39
2019-05-05T01:48:15.249Z,1009.37
2019-05-05T01:49:15.234Z,1009.41
2019-05-05T01:50:20.978Z,1009.39
2019-05-05T01:51:16.207Z,1009.45
2019-05-05T01:52:15.201Z,1009.45
2019-05-05T01:53:15.346Z,1009.45
2019-05-05T01:54:15.176Z,1009.49
2019-05-05T01:55:15.165Z,1009.49
2019-05-05T01:56:15.432Z,1009.50
2019-05-05T01:57:15.144Z,1009.46
2019-05-05T01:58:15.366Z,1009.48
2019-05-05T01:59:15.121Z,1009.49
2019-05-05T02:00:15.110Z,1009.51
2019-05-05T02:01:15.321Z,1009.50
2019-05-05T02:02:15.122Z,1009.52
2019-05-05T02:03:15.077Z,1009.51
2019-05-05T02:04:15.067Z,1009.57
2019-05-05T02:05:15.054Z,1009.57
2019-05-05T02:06:15.043Z,1009.55
2019-05-05T02:07:15.033Z,1009.56
2019-05-05T02:08:15.384Z,1009.53
2019-05-05T02:09:15.880Z,1009.56
2019-05-05T02:10:15.354Z,1009.58
2019-05-05T02:11:15.606Z,1009.60
2019-05-05T02:12:15.889Z,1009.54
2019-05-05T02:13:16.064Z,1009.60
2019-05-05T02:14:15.595Z,1009.56
2019-05-05T02:15:15.130Z,1009.60
2019-05-05T02:16:15.117Z,1009.63
2019-05-05T02:17:14.925Z,1009.60
2019-05-05T02:18:15.038Z,1009.62
2019-05-05T02:19:14.901Z,1009.65
2019-05-05T02:20:28.419Z,1009.66
2019-05-05T02:21:15.876Z,1009.66
2019-05-05T02:22:14.924Z,1009.67
2019-05-05T02:23:15.175Z,1009.70
2019-05-05T02:24:14.845Z,1009.68
2019-05-05T02:25:14.837Z,1009.66
2019-05-05T02:26:15.400Z,1009.71
2019-05-05T02:27:14.812Z,1009.70
2019-05-05T02:28:15.093Z,1009.71
2019-05-05T02:29:14.788Z,1009.69
2019-05-05T02:30:16.257Z,1009.70
2019-05-05T02:31:16.705Z,1009.69
2019-05-05T02:32:15.807Z,1009.70
2019-05-05T02:33:15.658Z,1009.67
2019-05-05T02:34:16.511Z,1009.69
2019-05-05T02:35:16.219Z,1009.70
2019-05-05T02:36:15.920Z,1009.68
2019-05-05T02:37:16.104Z,1009.69
2019-05-05T02:38:15.639Z,1009.70
2019-05-05T02:39:15.991Z,1009.69
2019-05-05T02:40:15.897Z,1009.72
2019-05-05T02:41:15.429Z,1009.75
2019-05-05T02:42:14.872Z,1009.78
2019-05-05T02:43:15.227Z,1009.78
2019-05-05T02:44:15.494Z,1009.79
2019-05-05T02:45:15.475Z,1009.81
2019-05-05T02:46:14.661Z,1009.83
2019-05-05T02:47:15.443Z,1009.85
2019-05-05T02:48:15.442Z,1009.90
2019-05-05T02:49:15.296Z,1009.85
2019-05-05T02:50:15.559Z,1009.90
2019-05-05T02:51:15.358Z,1009.91
2019-05-05T02:52:15.219Z,1009.91
2019-05-05T02:53:14.523Z,1009.97
2019-05-05T02:54:14.511Z,1009.95
2019-05-05T02:55:14.743Z,1010.01
2019-05-05T02:56:14.694Z,1010.01
2019-05-05T02:57:14.479Z,1010.02
2019-05-05T02:58:14.472Z,1010.08
2019-05-05T02:59:14.750Z,1010.06
2019-05-05T03:00:14.445Z,1010.05
2019-05-05T03:01:14.434Z,1010.11
2019-05-05T03:02:14.597Z,1010.16
2019-05-05T03:03:14.413Z,1010.17
2019-05-05T03:04:14.401Z,1010.17
2019-05-05T03:05:14.391Z,1010.13
2019-05-05T03:06:14.570Z,1010.12
2019-05-05T03:07:14.368Z,1010.10
2019-05-05T03:08:14.366Z,1010.13
2019-05-05T03:09:14.347Z,1010.07
2019-05-05T03:10:14.335Z,1010.10
2019-05-05T03:11:14.548Z,1010.13
2019-05-05T03:12:14.877Z,1010.12
2019-05-05T03:13:14.302Z,1010.11
2019-05-05T03:14:14.424Z,1010.14
2019-05-05T03:15:14.368Z,1010.18
2019-05-05T03:16:14.285Z,1010.17
2019-05-05T03:17:14.538Z,1010.21
2019-05-05T03:18:14.247Z,1010.22
2019-05-05T03:19:14.386Z,1010.25
2019-05-05T03:20:14.585Z,1010.22
2019-05-05T03:21:14.213Z,1010.26
2019-05-05T03:22:14.400Z,1010.27
2019-05-05T03:23:14.193Z,1010.29
2019-05-05T03:24:14.441Z,1010.30
2019-05-05T03:25:14.169Z,1010.30
2019-05-05T03:26:14.220Z,1010.33
2019-05-05T03:27:14.464Z,1010.34
2019-05-05T03:28:14.135Z,1010.35
2019-05-05T03:29:14.124Z,1010.40
2019-05-05T03:30:15.450Z,1010.39
2019-05-05T03:31:16.028Z,1010.40
2019-05-05T03:32:16.185Z,1010.40
2019-05-05T03:33:15.958Z,1010.42
2019-05-05T03:34:16.318Z,1010.42
2019-05-05T03:35:14.059Z,1010.42
2019-05-05T03:36:14.123Z,1010.44
2019-05-05T03:37:14.605Z,1010.44
2019-05-05T03:38:14.284Z,1010.44
2019-05-05T03:39:14.450Z,1010.46
2019-05-05T03:40:14.769Z,1010.49
2019-05-05T03:41:13.992Z,1010.47
2019-05-05T03:42:14.063Z,1010.49
2019-05-05T03:43:14.534Z,1010.48
2019-05-05T03:44:14.138Z,1010.48
2019-05-05T03:45:14.521Z,1010.52
2019-05-05T03:46:13.936Z,1010.54
2019-05-05T03:47:14.080Z,1010.59
2019-05-05T03:48:13.914Z,1010.61
2019-05-05T03:49:14.193Z,1010.64
2019-05-05T03:50:14.504Z,1010.66
2019-05-05T03:51:18.810Z,1010.64
2019-05-05T03:52:14.868Z,1010.62
2019-05-05T03:53:14.085Z,1010.61
2019-05-05T03:54:14.610Z,1010.64
2019-05-05T03:55:13.943Z,1010.67
2019-05-05T03:56:14.112Z,1010.66
2019-05-05T03:57:14.222Z,1010.72
2019-05-05T03:58:14.675Z,1010.74
2019-05-05T03:59:14.225Z,1010.73
2019-05-05T04:00:14.274Z,1010.78
2019-05-05T04:01:14.517Z,1010.76
2019-05-05T04:02:14.212Z,1010.80
2019-05-05T04:03:14.688Z,1010.82
2019-05-05T04:04:13.951Z,1010.80
2019-05-05T04:05:14.590Z,1010.80
2019-05-05T04:06:14.682Z,1010.80
2019-05-05T04:07:14.017Z,1010.83
2019-05-05T04:08:14.510Z,1010.81
2019-05-05T04:09:13.826Z,1010.78
2019-05-05T04:10:14.104Z,1010.86
2019-05-05T04:11:14.370Z,1010.80
2019-05-05T04:12:13.855Z,1010.89
2019-05-05T04:13:13.955Z,1010.83
2019-05-05T04:14:14.194Z,1010.86
2019-05-05T04:15:14.236Z,1010.86
2019-05-05T04:16:13.751Z,1010.89
2019-05-05T04:17:14.233Z,1010.93
2019-05-05T04:18:14.578Z,1010.93
2019-05-05T04:19:13.893Z,1010.91
2019-05-05T04:20:13.884Z,1010.94
2019-05-05T04:21:14.490Z,1010.97
2019-05-05T04:22:13.713Z,1010.99
2019-05-05T04:23:14.154Z,1010.98
2019-05-05T04:24:14.536Z,1010.95
2019-05-05T04:25:13.957Z,1010.98
2019-05-05T04:26:14.257Z,1010.95
2019-05-05T04:27:14.670Z,1010.95
2019-05-05T04:28:13.698Z,1010.95
2019-05-05T04:29:14.004Z,1010.97
2019-05-05T04:30:14.306Z,1010.99
2019-05-05T04:31:13.672Z,1010.97
2019-05-05T04:32:14.232Z,1010.99
2019-05-05T04:33:14.197Z,1011.03
2019-05-05T04:34:13.522Z,1011.07
2019-05-05T04:35:14.079Z,1011.09
2019-05-05T04:36:14.453Z,1011.09
2019-05-05T04:37:14.934Z,1011.10
2019-05-05T04:38:14.036Z,1011.13
2019-05-05T04:39:14.380Z,1011.13
2019-05-05T04:40:14.874Z,1011.08
2019-05-05T04:41:13.991Z,1011.13
2019-05-05T04:42:13.997Z,1011.15
2019-05-05T04:43:14.289Z,1011.10
2019-05-05T04:44:14.823Z,1011.12
2019-05-05T04:45:14.854Z,1011.11
2019-05-05T04:46:14.009Z,1011.09
2019-05-05T04:47:14.491Z,1011.12
2019-05-05T04:48:13.838Z,1011.11
2019-05-05T04:49:14.021Z,1011.09
2019-05-05T04:50:14.924Z,1011.10
2019-05-05T04:51:13.925Z,1011.13
2019-05-05T04:52:14.276Z,1011.13
2019-05-05T04:53:13.585Z,1011.10
2019-05-05T04:54:14.200Z,1011.11
2019-05-05T04:55:13.837Z,1011.09
2019-05-05T04:56:14.114Z,1011.11
2019-05-05T04:57:14.941Z,1011.12
2019-05-05T04:58:13.755Z,1011.10
2019-05-05T04:59:14.410Z,1011.06
2019-05-05T05:00:13.704Z,1011.13
2019-05-05T05:01:13.493Z,1011.12
2019-05-05T05:02:14.397Z,1011.16
2019-05-05T05:03:13.495Z,1011.16
2019-05-05T05:04:13.781Z,1011.13
2019-05-05T05:05:14.541Z,1011.18
2019-05-05T05:06:14.661Z,1011.16
2019-05-05T05:07:13.623Z,1011.15
2019-05-05T05:08:13.977Z,1011.20
2019-05-05T05:09:14.647Z,1011.19
2019-05-05T05:10:13.844Z,1011.21
2019-05-05T05:11:14.208Z,1011.19
2019-05-05T05:12:14.617Z,1011.21
2019-05-05T05:13:13.851Z,1011.21
2019-05-05T05:14:14.368Z,1011.24
2019-05-05T05:15:14.614Z,1011.19
2019-05-05T05:16:13.915Z,1011.17
2019-05-05T05:17:14.078Z,1011.18
2019-05-05T05:18:14.722Z,1011.17
2019-05-05T05:19:13.818Z,1011.17
2019-05-05T05:20:14.156Z,1011.19
2019-05-05T05:21:14.523Z,1011.20
2019-05-05T05:22:13.686Z,1011.21
2019-05-05T05:23:14.165Z,1011.18
2019-05-05T05:24:14.622Z,1011.21
2019-05-05T05:25:13.585Z,1011.19
2019-05-05T05:26:13.885Z,1011.23
2019-05-05T05:27:13.868Z,1011.23
2019-05-05T05:28:14.370Z,1011.21
2019-05-05T05:29:14.907Z,1011.25
2019-05-05T05:30:13.782Z,1011.25
2019-05-05T05:31:14.109Z,1011.25
2019-05-05T05:32:12.792Z,1011.23
2019-05-05T05:33:14.779Z,1011.24
2019-05-05T05:34:14.669Z,1011.29
2019-05-05T05:35:14.084Z,1011.28
2019-05-05T05:36:14.408Z,1011.29
2019-05-05T05:37:13.492Z,1011.32
2019-05-05T05:38:14.020Z,1011.31
2019-05-05T05:39:13.958Z,1011.34
2019-05-05T05:40:14.433Z,1011.28
2019-05-05T05:41:13.640Z,1011.34
2019-05-05T05:42:13.708Z,1011.38
2019-05-05T05:43:13.920Z,1011.39
2019-05-05T05:44:14.047Z,1011.39
2019-05-05T05:45:14.502Z,1011.40
2019-05-05T05:46:13.614Z,1011.40
2019-05-05T05:47:14.062Z,1011.39
2019-05-05T05:48:14.450Z,1011.40
2019-05-05T05:49:13.526Z,1011.47
2019-05-05T05:50:14.291Z,1011.47
2019-05-05T05:51:14.513Z,1011.49
2019-05-05T05:52:18.727Z,1011.51
2019-05-05T05:53:14.060Z,1011.53
2019-05-05T05:54:14.159Z,1011.53
2019-05-05T05:55:14.453Z,1011.50
2019-05-05T05:56:13.485Z,1011.52
2019-05-05T05:57:13.594Z,1011.52
2019-05-05T05:58:14.034Z,1011.53
2019-05-05T05:59:14.093Z,1011.51
2019-05-05T06:00:14.345Z,1011.53
2019-05-05T06:01:14.624Z,1011.52
2019-05-05T06:02:15.197Z,1011.60
2019-05-05T06:03:14.113Z,1011.57
2019-05-05T06:04:14.386Z,1011.58
2019-05-05T06:05:14.569Z,1011.61
2019-05-05T06:06:13.820Z,1011.60
2019-05-05T06:07:14.198Z,1011.63
2019-05-05T06:08:14.173Z,1011.63
2019-05-05T06:09:12.354Z,1011.63
2019-05-05T06:10:23.709Z,1011.69
2019-05-05T06:11:13.753Z,1011.66
2019-05-05T06:12:14.247Z,1011.69
2019-05-05T06:13:14.878Z,1011.68
2019-05-05T06:14:14.427Z,1011.68
2019-05-05T06:15:14.154Z,1011.63
2019-05-05T06:16:14.453Z,1011.65
2019-05-05T06:17:13.493Z,1011.67
2019-05-05T06:18:13.799Z,1011.69
2019-05-05T06:19:13.981Z,1011.72
2019-05-05T06:20:14.374Z,1011.73
2019-05-05T06:21:13.739Z,1011.72
2019-05-05T06:22:15.226Z,1011.76
2019-05-05T06:23:14.743Z,1011.77
2019-05-05T06:24:13.603Z,1011.79
2019-05-05T06:25:15.468Z,1011.78
2019-05-05T06:26:14.926Z,1011.81
2019-05-05T06:27:14.112Z,1011.83
2019-05-05T06:28:14.300Z,1011.82
2019-05-05T06:29:12.133Z,1011.88
2019-05-05T06:30:13.785Z,1011.85
2019-05-05T06:31:13.984Z,1011.83
2019-05-05T06:32:14.387Z,1011.88
2019-05-05T06:33:13.679Z,1011.88
2019-05-05T06:34:13.925Z,1011.85
2019-05-05T06:35:13.875Z,1011.91
2019-05-05T06:36:14.069Z,1011.88
2019-05-05T06:37:12.042Z,1011.92
2019-05-05T06:38:13.585Z,1011.92
2019-05-05T06:39:13.653Z,1011.91
2019-05-05T06:40:13.884Z,1011.91
2019-05-05T06:41:11.999Z,1011.92
2019-05-05T06:42:13.645Z,1011.97
2019-05-05T06:43:13.858Z,1011.96
2019-05-05T06:44:14.080Z,1011.98
2019-05-05T06:45:11.955Z,1012.00
2019-05-05T06:46:11.944Z,1011.98
2019-05-05T06:47:13.511Z,1012.03
2019-05-05T06:48:13.566Z,1012.01
2019-05-05T06:49:13.652Z,1012.03
2019-05-05T06:50:13.510Z,1012.05
2019-05-05T06:51:13.920Z,1012.05
2019-05-05T06:52:11.878Z,1012.03
2019-05-05T06:53:13.533Z,1012.03
2019-05-05T06:54:13.625Z,1012.02
2019-05-05T06:55:13.965Z,1012.06
2019-05-05T06:56:11.845Z,1012.05
2019-05-05T06:57:13.739Z,1012.06
2019-05-05T06:58:13.621Z,1012.07
2019-05-05T06:59:13.701Z,1012.07
2019-05-05T07:00:13.845Z,1012.09
2019-05-05T07:01:13.748Z,1012.07
2019-05-05T07:02:11.778Z,1012.09
2019-05-05T07:03:13.744Z,1012.13
2019-05-05T07:04:13.847Z,1012.11
2019-05-05T07:05:11.734Z,1012.08
2019-05-05T07:06:11.722Z,1012.12
2019-05-05T07:07:11.714Z,1012.13
2019-05-05T07:08:13.613Z,1012.14
2019-05-05T07:09:13.398Z,1012.13
2019-05-05T07:10:13.921Z,1012.13
2019-05-05T07:11:11.711Z,1012.08
2019-05-05T07:12:13.655Z,1012.11
2019-05-05T07:13:13.847Z,1012.13
2019-05-05T07:14:11.667Z,1012.11
2019-05-05T07:15:11.626Z,1012.11
2019-05-05T07:16:12.838Z,1012.09
2019-05-05T07:17:13.901Z,1012.07
2019-05-05T07:18:11.590Z,1012.07
2019-05-05T07:19:11.578Z,1012.06
2019-05-05T07:20:13.452Z,1012.08
2019-05-05T07:21:11.557Z,1012.08
2019-05-05T07:22:13.872Z,1012.03
2019-05-05T07:23:11.537Z,1012.04
2019-05-05T07:24:11.523Z,1012.07
2019-05-05T07:25:13.616Z,1012.07
2019-05-05T07:26:11.525Z,1012.08
2019-05-05T07:27:13.675Z,1012.12
2019-05-05T07:28:11.478Z,1012.12
2019-05-05T07:29:11.469Z,1012.07
2019-05-05T07:30:13.601Z,1012.08
2019-05-05T07:31:11.445Z,1012.06
2019-05-05T07:32:11.463Z,1012.06
2019-05-05T07:33:11.423Z,1012.02
2019-05-05T07:34:13.576Z,1012.03
2019-05-05T07:35:11.402Z,1012.02
2019-05-05T07:36:11.390Z,1012.06
2019-05-05T07:37:11.378Z,1012.09
2019-05-05T07:38:13.699Z,1012.07
2019-05-05T07:39:11.360Z,1012.09
2019-05-05T07:40:13.430Z,1012.03
2019-05-05T07:41:11.335Z,1012.09
2019-05-05T07:42:13.599Z,1012.12
2019-05-05T07:43:11.313Z,1012.13
2019-05-05T07:44:25.075Z,1012.12
2019-05-05T07:45:20.185Z,1012.08
2019-05-05T07:46:13.586Z,1012.15
2019-05-05T07:47:11.268Z,1012.09
2019-05-05T07:48:11.257Z,1012.12
2019-05-05T07:49:11.247Z,1012.11
2019-05-05T07:50:25.427Z,1012.08
2019-05-05T07:51:14.137Z,1012.08
2019-05-05T07:52:11.333Z,1012.09
2019-05-05T07:53:14.799Z,1012.10
2019-05-05T07:54:11.191Z,1012.13
2019-05-05T07:55:11.179Z,1012.14
2019-05-05T07:56:11.175Z,1012.10
2019-05-05T07:57:11.159Z,1012.17
2019-05-05T07:58:11.153Z,1012.17
2019-05-05T07:59:11.137Z,1012.22
2019-05-05T08:00:11.126Z,1012.22
2019-05-05T08:01:11.116Z,1012.29
2019-05-05T08:02:11.108Z,1012.21
2019-05-05T08:03:11.091Z,1012.25
2019-05-05T08:04:11.081Z,1012.28
2019-05-05T08:05:11.070Z,1012.28
2019-05-05T08:06:11.062Z,1012.31
2019-05-05T08:07:11.048Z,1012.28
2019-05-05T08:08:11.045Z,1012.23
2019-05-05T08:09:11.027Z,1012.24
2019-05-05T08:10:11.015Z,1012.25
2019-05-05T08:11:11.002Z,1012.24
2019-05-05T08:12:10.992Z,1012.25
2019-05-05T08:13:10.981Z,1012.18
2019-05-05T08:14:10.977Z,1012.24
2019-05-05T08:15:10.961Z,1012.22
2019-05-05T08:16:10.948Z,1012.26
2019-05-05T08:17:10.937Z,1012.28
2019-05-05T08:18:10.926Z,1012.24
2019-05-05T08:19:10.918Z,1012.31
2019-05-05T08:20:10.925Z,1012.33
2019-05-05T08:21:10.892Z,1012.35
2019-05-05T08:22:10.889Z,1012.33
2019-05-05T08:23:10.870Z,1012.34
2019-05-05T08:24:10.859Z,1012.38
2019-05-05T08:25:10.848Z,1012.38
2019-05-05T08:26:10.871Z,1012.35
2019-05-05T08:27:10.825Z,1012.37
2019-05-05T08:28:10.818Z,1012.37
2019-05-05T08:29:10.803Z,1012.38
2019-05-05T08:30:10.793Z,1012.37
2019-05-05T08:31:10.782Z,1012.38
2019-05-05T08:32:10.780Z,1012.37
2019-05-05T08:33:10.759Z,1012.31
2019-05-05T08:34:10.748Z,1012.32
2019-05-05T08:35:10.737Z,1012.34
2019-05-05T08:36:10.726Z,1012.32
2019-05-05T08:37:10.715Z,1012.29
2019-05-05T08:38:10.736Z,1012.35
2019-05-05T08:39:10.693Z,1012.38
2019-05-05T08:40:10.681Z,1012.38
2019-05-05T08:41:10.671Z,1012.40
2019-05-05T08:42:10.659Z,1012.42
2019-05-05T08:43:10.648Z,1012.42
2019-05-05T08:44:10.648Z,1012.44
2019-05-05T08:45:10.629Z,1012.44
2019-05-05T08:46:10.621Z,1012.46
2019-05-05T08:47:10.604Z,1012.42
2019-05-05T08:48:10.594Z,1012.42
2019-05-05T08:49:10.583Z,1012.42
2019-05-05T08:50:10.578Z,1012.44
2019-05-05T08:51:10.561Z,1012.45
2019-05-05T08:52:10.549Z,1012.48
2019-05-05T08:53:10.540Z,1012.49
2019-05-05T08:54:10.527Z,1012.55
2019-05-05T08:55:10.515Z,1012.58
2019-05-05T08:56:10.525Z,1012.56
2019-05-05T08:57:10.494Z,1012.57
2019-05-05T08:58:10.483Z,1012.55
2019-05-05T08:59:10.472Z,1012.51
2019-05-05T09:00:10.461Z,1012.53
2019-05-05T09:01:10.449Z,1012.46
2019-05-05T09:02:10.472Z,1012.50
2019-05-05T09:03:10.429Z,1012.47
2019-05-05T09:04:10.417Z,1012.49
2019-05-05T09:05:10.406Z,1012.53
2019-05-05T09:06:10.395Z,1012.52
2019-05-05T09:07:10.383Z,1012.52
2019-05-05T09:08:10.402Z,1012.57
2019-05-05T09:09:10.369Z,1012.55
2019-05-05T09:10:10.350Z,1012.50
2019-05-05T09:11:10.339Z,1012.49
2019-05-05T09:12:10.329Z,1012.49
2019-05-05T09:13:10.320Z,1012.49
2019-05-05T09:14:10.312Z,1012.48
2019-05-05T09:15:10.298Z,1012.52
2019-05-05T09:16:10.284Z,1012.50
2019-05-05T09:17:10.273Z,1012.51
2019-05-05T09:18:10.262Z,1012.54
2019-05-05T09:19:10.250Z,1012.52
2019-05-05T09:20:10.244Z,1012.52
2019-05-05T09:21:10.228Z,1012.53
2019-05-05T09:22:10.216Z,1012.53
2019-05-05T09:23:10.206Z,1012.56
2019-05-05T09:24:10.195Z,1012.49
2019-05-05T09:25:10.183Z,1012.52
2019-05-05T09:26:10.196Z,1012.50
2019-05-05T09:27:10.162Z,1012.55
2019-05-05T09:28:10.151Z,1012.46
2019-05-05T09:29:10.140Z,1012.53
2019-05-05T09:30:10.127Z,1012.54
2019-05-05T09:31:10.117Z,1012.59
2019-05-05T09:32:10.114Z,1012.63
2019-05-05T09:33:10.097Z,1012.60
2019-05-05T09:34:10.084Z,1012.61
2019-05-05T09:35:10.074Z,1012.60
2019-05-05T09:36:10.062Z,1012.58
2019-05-05T09:37:10.051Z,1012.61
2019-05-05T09:38:10.048Z,1012.60
2019-05-05T09:39:10.028Z,1012.57
2019-05-05T09:40:10.025Z,1012.59
2019-05-05T09:41:10.007Z,1012.56
2019-05-05T09:42:09.996Z,1012.56
2019-05-05T09:43:09.984Z,1012.55
2019-05-05T09:44:09.979Z,1012.58
2019-05-05T09:45:09.963Z,1012.55
2019-05-05T09:46:09.951Z,1012.62
2019-05-05T09:47:09.940Z,1012.55
2019-05-05T09:48:09.928Z,1012.56
2019-05-05T09:49:09.918Z,1012.62
2019-05-05T09:50:09.933Z,1012.56
2019-05-05T09:51:09.895Z,1012.59
2019-05-05T09:52:09.886Z,1012.58
2019-05-05T09:53:09.873Z,1012.59
2019-05-05T09:54:13.990Z,1012.60
2019-05-05T09:55:09.856Z,1012.59
2019-05-05T09:56:09.862Z,1012.57
2019-05-05T09:57:09.832Z,1012.57
2019-05-05T09:58:09.818Z,1012.60
2019-05-05T09:59:09.809Z,1012.61
2019-05-05T10:00:09.797Z,1012.58
2019-05-05T10:01:09.786Z,1012.63
2019-05-05T10:02:09.805Z,1012.62
2019-05-05T10:03:09.763Z,1012.57
2019-05-05T10:04:09.752Z,1012.57
2019-05-05T10:05:09.740Z,1012.56
2019-05-05T10:06:09.729Z,1012.56
2019-05-05T10:07:09.720Z,1012.57
2019-05-05T10:08:09.734Z,1012.57
2019-05-05T10:09:09.695Z,1012.58
2019-05-05T10:10:09.685Z,1012.58
2019-05-05T10:11:09.676Z,1012.64
2019-05-05T10:12:09.662Z,1012.60
2019-05-05T10:13:09.652Z,1012.64
2019-05-05T10:14:09.647Z,1012.62
2019-05-05T10:15:09.630Z,1012.65
2019-05-05T10:16:09.619Z,1012.70
2019-05-05T10:17:09.608Z,1012.73
2019-05-05T10:18:09.597Z,1012.63
2019-05-05T10:19:09.585Z,1012.68
2019-05-05T10:20:09.580Z,1012.67
2019-05-05T10:21:09.565Z,1012.69
2019-05-05T10:22:09.552Z,1012.68
2019-05-05T10:23:09.541Z,1012.62
2019-05-05T10:24:09.530Z,1012.63
2019-05-05T10:25:09.519Z,1012.64
2019-05-05T10:26:09.531Z,1012.67
2019-05-05T10:27:09.497Z,1012.69
2019-05-05T10:28:09.486Z,1012.69
2019-05-05T10:29:09.475Z,1012.67
2019-05-05T10:30:10.702Z,1012.69
2019-05-05T10:31:09.453Z,1012.65
2019-05-05T10:32:09.463Z,1012.64
2019-05-05T10:33:09.430Z,1012.60
2019-05-05T10:34:09.419Z,1012.62
2019-05-05T10:35:09.407Z,1012.61
2019-05-05T10:36:09.396Z,1012.59
2019-05-05T10:37:09.386Z,1012.65
2019-05-05T10:38:09.392Z,1012.62
2019-05-05T10:39:09.365Z,1012.62
2019-05-05T10:40:09.352Z,1012.66
2019-05-05T10:41:09.343Z,1012.58
2019-05-05T10:42:09.330Z,1012.53
2019-05-05T10:43:09.325Z,1012.58
2019-05-05T10:44:09.327Z,1012.55
2019-05-05T10:45:09.297Z,1012.60
2019-05-05T10:46:09.289Z,1012.64
2019-05-05T10:47:09.276Z,1012.66
2019-05-05T10:48:09.268Z,1012.70
2019-05-05T10:49:09.254Z,1012.61
2019-05-05T10:50:09.249Z,1012.68
2019-05-05T10:51:09.232Z,1012.69
2019-05-05T10:52:09.222Z,1012.67
2019-05-05T10:53:09.209Z,1012.64
2019-05-05T10:54:09.198Z,1012.63
2019-05-05T10:55:09.187Z,1012.63
2019-05-05T10:56:09.183Z,1012.58
2019-05-05T10:57:09.164Z,1012.57
2019-05-05T10:58:09.154Z,1012.58
2019-05-05T10:59:09.143Z,1012.55
2019-05-05T11:00:12.512Z,1012.54
2019-05-05T11:01:10.146Z,1012.52
2019-05-05T11:02:09.110Z,1012.50
2019-05-05T11:03:09.103Z,1012.49
2019-05-05T11:04:09.087Z,1012.44
2019-05-05T11:05:09.076Z,1012.42
2019-05-05T11:06:09.066Z,1012.44
2019-05-05T11:07:09.062Z,1012.41
2019-05-05T11:08:09.043Z,1012.44
2019-05-05T11:09:09.031Z,1012.40
2019-05-05T11:10:09.021Z,1012.45
2019-05-05T11:11:09.010Z,1012.41
2019-05-05T11:12:09.003Z,1012.43
2019-05-05T11:13:08.994Z,1012.42
2019-05-05T11:14:08.977Z,1012.43
2019-05-05T11:15:08.965Z,1012.46
2019-05-05T11:16:08.955Z,1012.46
2019-05-05T11:17:08.943Z,1012.48
2019-05-05T11:18:08.936Z,1012.50
2019-05-05T11:19:08.929Z,1012.52
2019-05-05T11:20:08.911Z,1012.54
2019-05-05T11:21:08.898Z,1012.52
2019-05-05T11:22:08.888Z,1012.52
2019-05-05T11:23:08.876Z,1012.56
2019-05-05T11:24:08.866Z,1012.55
2019-05-05T11:25:08.864Z,1012.57
2019-05-05T11:26:08.844Z,1012.54
2019-05-05T11:27:08.836Z,1012.60
2019-05-05T11:28:08.825Z,1012.54
2019-05-05T11:29:08.809Z,1012.52
2019-05-05T11:30:08.800Z,1012.58
2019-05-05T11:31:08.793Z,1012.52
2019-05-05T11:32:08.779Z,1012.56
2019-05-05T11:33:08.767Z,1012.57
2019-05-05T11:34:08.755Z,1012.58
2019-05-05T11:35:08.743Z,1012.54
2019-05-05T11:36:08.735Z,1012.52
2019-05-05T11:37:08.728Z,1012.49
2019-05-05T11:38:08.710Z,1012.45
2019-05-05T11:39:08.701Z,1012.45
2019-05-05T11:40:08.688Z,1012.48
2019-05-05T11:41:08.680Z,1012.50
2019-05-05T11:42:08.670Z,1012.45
2019-05-05T11:43:08.686Z,1012.51
2019-05-05T11:44:08.645Z,1012.44
2019-05-05T11:45:08.634Z,1012.41
2019-05-05T11:46:08.622Z,1012.46
2019-05-05T11:47:08.612Z,1012.48
2019-05-05T11:48:08.599Z,1012.50
2019-05-05T11:49:08.614Z,1012.49
2019-05-05T11:50:08.577Z,1012.47
2019-05-05T11:51:08.567Z,1012.51
2019-05-05T11:52:08.567Z,1012.53
2019-05-05T11:53:08.549Z,1012.50
2019-05-05T11:54:08.534Z,1012.51
2019-05-05T11:55:12.061Z,1012.54
2019-05-05T11:56:08.511Z,1012.52
2019-05-05T11:57:08.500Z,1012.60
2019-05-05T11:58:08.488Z,1012.56
2019-05-05T11:59:08.478Z,1012.58
2019-05-05T12:00:08.468Z,1012.58
2019-05-05T12:01:08.466Z,1012.59
2019-05-05T12:02:08.447Z,1012.61
2019-05-05T12:03:08.435Z,1012.64
2019-05-05T12:04:08.423Z,1012.59
2019-05-05T12:05:08.413Z,1012.58